Salina Municipal Airport
KSLN : now visible

Airfield :











YOU CAN JOIN US ON...

 
LOGIN :

Register | Disclaimer

   EN    FR    IT 

 









Legend :    VFR   Marginal VFR   IFR   Intensive IFR   Very Intensive IFR
Visi :
Ceiling :
>= 8 km
>= 3000ft
5 to 8 km
1000 to 3000 ft
1500m to 5 km
500 to 1000 ft
800 to 1500m
200 to 500 ft
< 800m
< 200 ft
Symbols :   Thunderstorms  Fog  Heavy snow  Heavy precipitations  Wind > 20 kt






- Airport Elevation : 1288 ft
- IATA code : SLN


KSLN - Salina Municipal

CURRENT METAR :
  • 280453Z AUTO 33003KT 10SM OVC055 20/17 A2992 RMK AO2 SLP122 T02000167

EXPIRED METARs :
  • 280353Z 00000KT 10SM BKN065 20/17 A2992 RMK AO2 SLP123 T02000167
  • 280253Z 00000KT 10SM OVC060 22/16 A2991 RMK AO2 SLP118 T02170156 53009

TAF KSLN
Valid from the 28 at 00:00 until the 29 at 00:00 UTC


272326Z 2800/2824 01007KT P6SM OVC050
FM280600 32004KT P6SM VCSH OVC080
FM280900 32006KT P6SM VCSH OVC040
FM281300 33007KT P6SM VCSH BKN050
FM281800 36015G23KT P6SM SCT130
KZKC FIR / North America



MET'MAP, your aeronautical weather chart ! - Copyright ORBIFLY December 2007 - Disclaimer

ORBIFLY MET'MAP TEAM :

Programming & Development : Alexandra Zaïnal
Concept & original design : Baudouin d'Aumeries
Assistance for programming : Marc-Olivier Méhu
Technical & hardware support : Manuel Goepfert

Contact : metmap@orbifly.com




SOURCES & CREDITS :

   NOAA       Earth
Advisory